createdAt,value
2018-06-08T00:00:12.186Z,20.4
2018-06-08T00:00:52.736Z,20.43
2018-06-08T00:01:33.286Z,20.43
2018-06-08T00:02:13.844Z,20.34
2018-06-08T00:02:54.391Z,20.5
2018-06-08T00:03:34.974Z,20.48
2018-06-08T00:04:15.666Z,20.41
2018-06-08T00:04:56.226Z,20.58
2018-06-08T00:05:36.795Z,20.34
2018-06-08T00:06:17.416Z,20.48
2018-06-08T00:06:57.977Z,20.39
2018-06-08T00:07:38.548Z,20.41
2018-06-08T00:08:19.107Z,20.36
2018-06-08T00:08:59.656Z,20.26
2018-06-08T00:09:40.246Z,20.39
2018-06-08T00:10:20.781Z,20.29
2018-06-08T00:11:01.331Z,20.41
2018-06-08T00:11:41.899Z,20.39
2018-06-08T00:12:22.483Z,20.32
2018-06-08T00:13:03.059Z,20.29
2018-06-08T00:13:43.635Z,20.36
2018-06-08T00:14:24.192Z,20.4
2018-06-08T00:15:04.757Z,20.28
2018-06-08T00:15:45.311Z,20.31
2018-06-08T00:16:25.871Z,20.28
2018-06-08T00:17:06.432Z,20.37
2018-06-08T00:17:46.970Z,20.26
2018-06-08T00:18:27.529Z,20.34
2018-06-08T00:19:08.092Z,20.28
2018-06-08T00:19:48.669Z,20.22
2018-06-08T00:20:29.238Z,20.34
2018-06-08T00:21:09.810Z,20.26
2018-06-08T00:21:50.370Z,20.25
2018-06-08T00:22:30.931Z,20.29
2018-06-08T00:23:11.482Z,20.28
2018-06-08T00:23:52.036Z,20.26
2018-06-08T00:24:32.611Z,20.21
2018-06-08T00:25:13.184Z,20.18
2018-06-08T00:25:53.764Z,20.19
2018-06-08T00:26:34.325Z,20.32
2018-06-08T00:27:14.875Z,20.29
2018-06-08T00:27:55.446Z,20.34
2018-06-08T00:28:36.011Z,20.26
2018-06-08T00:29:16.595Z,20.24
2018-06-08T00:29:57.162Z,20.31
2018-06-08T00:30:37.717Z,20.24
2018-06-08T00:31:18.317Z,20.25
2018-06-08T00:31:58.831Z,20.24
2018-06-08T00:32:39.384Z,20.28
2018-06-08T00:33:19.939Z,20.24
2018-06-08T00:34:00.490Z,20.24
2018-06-08T00:34:41.059Z,20.34
2018-06-08T00:35:21.636Z,20.19
2018-06-08T00:36:02.200Z,20.29
2018-06-08T00:36:42.776Z,20.28
2018-06-08T00:37:23.327Z,20.34
2018-06-08T00:38:03.899Z,20.25
2018-06-08T00:38:44.445Z,20.21
2018-06-08T00:39:25.000Z,20.21
2018-06-08T00:40:05.555Z,20.26
2018-06-08T00:40:46.105Z,20.18
2018-06-08T00:41:26.679Z,20.25
2018-06-08T00:42:07.243Z,20.16
2018-06-08T00:42:47.827Z,20.16
2018-06-08T00:43:28.398Z,20.11
2018-06-08T00:44:08.955Z,20.11
2018-06-08T00:44:49.563Z,20.21
2018-06-08T00:45:30.138Z,20.11
2018-06-08T00:46:10.702Z,20.11
2018-06-08T00:46:51.250Z,20.11
2018-06-08T00:47:31.836Z,20.21
2018-06-08T00:48:12.413Z,20.14
2018-06-08T00:48:52.988Z,20.11
2018-06-08T00:49:33.983Z,20.16
2018-06-08T00:50:14.531Z,20.06
2018-06-08T00:50:55.080Z,20.06
2018-06-08T00:51:35.630Z,20.04
2018-06-08T00:52:16.180Z,20.09
2018-06-08T00:52:56.742Z,20.03
2018-06-08T00:53:37.283Z,20.07
2018-06-08T00:54:17.830Z,20.06
2018-06-08T00:54:58.388Z,20.04
2018-06-08T00:55:38.944Z,20.07
2018-06-08T00:56:19.524Z,19.95
2018-06-08T00:57:00.093Z,19.95
2018-06-08T00:57:40.658Z,19.95
2018-06-08T00:58:21.222Z,20.02
2018-06-08T00:59:01.782Z,20.06
2018-06-08T00:59:42.330Z,20.03
2018-06-08T01:00:22.889Z,19.91
2018-06-08T01:01:03.443Z,19.96
2018-06-08T01:01:44.010Z,19.91
2018-06-08T01:02:24.540Z,19.99
2018-06-08T01:03:05.095Z,20
2018-06-08T01:03:45.659Z,19.91
2018-06-08T01:04:26.235Z,19.92
2018-06-08T01:05:06.807Z,19.88
2018-06-08T01:05:47.389Z,20
2018-06-08T01:06:27.946Z,19.94
2018-06-08T01:07:08.500Z,19.89
2018-06-08T01:07:49.053Z,19.92
2018-06-08T01:08:29.607Z,19.88
2018-06-08T01:09:10.156Z,19.88
2018-06-08T01:09:50.704Z,19.86
2018-06-08T01:10:31.262Z,19.88
2018-06-08T01:11:11.825Z,19.95
2018-06-08T01:11:52.375Z,19.94
2018-06-08T01:12:32.958Z,19.92
2018-06-08T01:13:13.518Z,19.94
2018-06-08T01:13:54.078Z,19.89
2018-06-08T01:14:34.647Z,19.92
2018-06-08T01:15:15.214Z,19.86
2018-06-08T01:15:55.793Z,19.84
2018-06-08T01:16:36.373Z,19.91
2018-06-08T01:17:17.027Z,19.81
2018-06-08T01:17:57.601Z,19.82
2018-06-08T01:18:38.148Z,19.88
2018-06-08T01:19:18.694Z,19.79
2018-06-08T01:19:59.263Z,19.84
2018-06-08T01:20:39.822Z,19.82
2018-06-08T01:21:20.363Z,19.91
2018-06-08T01:22:00.913Z,19.88
2018-06-08T01:22:41.532Z,19.86
2018-06-08T01:23:22.115Z,19.77
2018-06-08T01:24:02.652Z,19.81
2018-06-08T01:24:43.222Z,19.85
2018-06-08T01:25:23.763Z,19.86
2018-06-08T01:26:04.319Z,19.86
2018-06-08T01:26:44.921Z,19.77
2018-06-08T01:27:25.526Z,19.82
2018-06-08T01:28:06.071Z,19.81
2018-06-08T01:28:46.622Z,19.77
2018-06-08T01:29:27.183Z,19.82
2018-06-08T01:30:07.773Z,19.77
2018-06-08T01:30:48.353Z,19.77
2018-06-08T01:31:28.939Z,19.79
2018-06-08T01:32:09.479Z,19.76
2018-06-08T01:32:50.031Z,19.79
2018-06-08T01:33:30.612Z,19.73
2018-06-08T01:34:11.225Z,19.77
2018-06-08T01:34:51.779Z,19.79
2018-06-08T01:35:32.335Z,19.71
2018-06-08T01:36:13.014Z,19.73
2018-06-08T01:36:53.628Z,19.66
2018-06-08T01:37:34.160Z,19.67
2018-06-08T01:38:14.734Z,19.67
2018-06-08T01:38:55.287Z,19.69
2018-06-08T01:39:35.837Z,19.69
2018-06-08T01:40:16.385Z,19.69
2018-06-08T01:40:56.938Z,19.7
2018-06-08T01:41:37.504Z,19.69
2018-06-08T01:42:18.065Z,19.66
2018-06-08T01:42:58.647Z,19.64
2018-06-08T01:43:39.260Z,19.7
2018-06-08T01:44:19.796Z,19.64
2018-06-08T01:45:00.356Z,19.66
2018-06-08T01:45:40.896Z,19.62
2018-06-08T01:46:21.446Z,19.67
2018-06-08T01:47:01.994Z,19.59
2018-06-08T01:47:42.571Z,19.59
2018-06-08T01:48:23.129Z,19.63
2018-06-08T01:49:03.701Z,19.62
2018-06-08T01:49:44.281Z,19.59
2018-06-08T01:50:24.840Z,19.59
2018-06-08T01:51:05.395Z,19.66
2018-06-08T01:51:45.955Z,19.59
2018-06-08T01:52:26.524Z,19.62
2018-06-08T01:53:07.115Z,19.59
2018-06-08T01:53:47.697Z,19.51
2018-06-08T01:54:28.282Z,19.66
2018-06-08T01:55:08.840Z,19.58
2018-06-08T01:55:49.395Z,19.59
2018-06-08T01:56:29.958Z,19.56
2018-06-08T01:57:10.507Z,19.55
2018-06-08T01:57:51.102Z,19.59
2018-06-08T01:58:31.665Z,19.49
2018-06-08T01:59:12.232Z,19.55
2018-06-08T01:59:52.779Z,19.47
2018-06-08T02:00:33.378Z,19.49
2018-06-08T02:01:13.956Z,19.56
2018-06-08T02:01:54.509Z,19.47
2018-06-08T02:02:35.066Z,19.47
2018-06-08T02:03:15.614Z,19.59
2018-06-08T02:03:56.221Z,19.55
2018-06-08T02:04:36.756Z,19.44
2018-06-08T02:05:17.344Z,19.39
2018-06-08T02:05:57.931Z,19.48
2018-06-08T02:06:38.485Z,19.41
2018-06-08T02:07:19.044Z,19.45
2018-06-08T02:07:59.586Z,19.47
2018-06-08T02:08:40.140Z,19.45
2018-06-08T02:09:20.703Z,19.51
2018-06-08T02:10:01.271Z,19.41
2018-06-08T02:10:41.820Z,19.44
2018-06-08T02:11:22.431Z,19.48
2018-06-08T02:12:02.989Z,19.47
2018-06-08T02:12:43.538Z,19.37
2018-06-08T02:13:24.087Z,19.39
2018-06-08T02:14:04.637Z,19.4
2018-06-08T02:14:45.201Z,19.36
2018-06-08T02:15:25.746Z,19.37
2018-06-08T02:16:06.319Z,19.41
2018-06-08T02:16:46.900Z,19.36
2018-06-08T02:17:27.469Z,19.41
2018-06-08T02:18:08.024Z,19.33
2018-06-08T02:18:48.589Z,19.39
2018-06-08T02:19:29.144Z,19.34
2018-06-08T02:20:09.728Z,19.4
2018-06-08T02:20:50.287Z,19.39
2018-06-08T02:21:30.839Z,19.37
2018-06-08T02:22:11.443Z,19.3
2018-06-08T02:22:51.995Z,19.3
2018-06-08T02:23:32.571Z,19.39
2018-06-08T02:24:13.133Z,19.36
2018-06-08T02:24:53.752Z,19.36
2018-06-08T02:25:34.315Z,19.36
2018-06-08T02:26:14.884Z,19.29
2018-06-08T02:26:55.453Z,19.37
2018-06-08T02:27:36.040Z,19.29
2018-06-08T02:28:16.585Z,19.29
2018-06-08T02:28:57.163Z,19.34
2018-06-08T02:29:37.741Z,19.27
2018-06-08T02:30:18.285Z,19.27
2018-06-08T02:30:58.872Z,19.26
2018-06-08T02:31:39.443Z,19.18
2018-06-08T02:32:20.004Z,19.26
2018-06-08T02:33:00.574Z,19.26
2018-06-08T02:33:41.170Z,19.26
2018-06-08T02:34:21.719Z,19.22
2018-06-08T02:35:02.275Z,19.29
2018-06-08T02:35:42.850Z,19.21
2018-06-08T02:36:23.443Z,19.3
2018-06-08T02:37:04.013Z,19.19
2018-06-08T02:37:44.592Z,19.18
2018-06-08T02:38:25.155Z,19.18
2018-06-08T02:39:05.736Z,19.24
2018-06-08T02:39:46.282Z,19.26
2018-06-08T02:40:26.843Z,19.22
2018-06-08T02:41:07.422Z,19.22
2018-06-08T02:41:47.989Z,19.22
2018-06-08T02:42:28.572Z,19.16
2018-06-08T02:43:09.117Z,19.26
2018-06-08T02:43:49.675Z,19.11
2018-06-08T02:44:30.253Z,19.14
2018-06-08T02:45:10.804Z,19.16
2018-06-08T02:45:51.384Z,19.16
2018-06-08T02:46:31.958Z,19.18
2018-06-08T02:47:12.525Z,19.16
2018-06-08T02:47:53.093Z,19.18
2018-06-08T02:48:33.650Z,19.14
2018-06-08T02:49:14.236Z,19.18
2018-06-08T02:49:54.801Z,19.18
2018-06-08T02:50:35.371Z,19.15
2018-06-08T02:51:15.967Z,19.15
2018-06-08T02:51:56.477Z,19.04
2018-06-08T02:52:37.031Z,19.02
2018-06-08T02:53:17.579Z,19.11
2018-06-08T02:53:58.147Z,19.14
2018-06-08T02:54:38.703Z,19.02
2018-06-08T02:55:19.299Z,19
2018-06-08T02:55:59.858Z,19.04
2018-06-08T02:56:40.443Z,19.09
2018-06-08T02:57:20.994Z,19.14
2018-06-08T02:58:01.564Z,19.11
2018-06-08T02:58:42.115Z,19.14
2018-06-08T02:59:22.733Z,19.07
2018-06-08T03:00:03.317Z,19.14
2018-06-08T03:00:43.862Z,19.08
2018-06-08T03:01:24.412Z,19.11
2018-06-08T03:02:04.971Z,19.07
2018-06-08T03:02:45.594Z,19
2018-06-08T03:03:26.162Z,19.07
2018-06-08T03:04:06.712Z,18.99
2018-06-08T03:04:47.261Z,19.04
2018-06-08T03:05:27.861Z,19
2018-06-08T03:06:08.418Z,19.07
2018-06-08T03:06:48.996Z,19
2018-06-08T03:07:29.547Z,18.99
2018-06-08T03:08:10.145Z,19.04
2018-06-08T03:08:50.716Z,18.99
2018-06-08T03:09:31.278Z,19
2018-06-08T03:10:11.840Z,19.08
2018-06-08T03:10:52.402Z,19.07
2018-06-08T03:11:32.985Z,18.92
2018-06-08T03:12:13.540Z,18.98
2018-06-08T03:12:54.103Z,18.96
2018-06-08T03:13:34.679Z,18.96
2018-06-08T03:14:15.254Z,18.96
2018-06-08T03:14:55.813Z,19.04
2018-06-08T03:15:36.378Z,18.89
2018-06-08T03:16:16.927Z,19.04
2018-06-08T03:16:57.482Z,18.99
2018-06-08T03:17:38.045Z,18.98
2018-06-08T03:18:18.615Z,18.92
2018-06-08T03:18:59.182Z,18.95
2018-06-08T03:19:39.734Z,18.92
2018-06-08T03:20:20.325Z,18.95
2018-06-08T03:21:00.880Z,19.02
2018-06-08T03:21:41.442Z,18.99
2018-06-08T03:22:21.980Z,18.9
2018-06-08T03:23:02.536Z,18.92
2018-06-08T03:23:43.105Z,18.95
2018-06-08T03:24:23.678Z,18.98
2018-06-08T03:25:04.237Z,18.96
2018-06-08T03:25:44.820Z,18.9
2018-06-08T03:26:25.370Z,18.9
2018-06-08T03:27:05.940Z,19.02
2018-06-08T03:27:46.503Z,18.95
2018-06-08T03:28:27.110Z,18.98
2018-06-08T03:29:07.668Z,19.04
2018-06-08T03:29:48.232Z,18.93
2018-06-08T03:30:28.789Z,18.93
2018-06-08T03:31:09.353Z,18.93
2018-06-08T03:31:49.908Z,18.93
2018-06-08T03:32:30.477Z,18.96
2018-06-08T03:33:11.166Z,18.95
2018-06-08T03:33:51.770Z,19
2018-06-08T03:34:34.298Z,19.04
2018-06-08T03:35:16.231Z,18.98
2018-06-08T03:35:58.841Z,19
2018-06-08T03:36:41.717Z,18.96
2018-06-08T03:37:23.610Z,18.92
2018-06-08T03:38:04.744Z,18.93
2018-06-08T03:38:46.766Z,18.9
2018-06-08T03:39:28.758Z,18.83
2018-06-08T03:40:12.031Z,18.88
2018-06-08T03:40:53.768Z,18.88
2018-06-08T03:41:36.030Z,19.04
2018-06-08T03:42:19.673Z,18.99
2018-06-08T03:43:01.780Z,18.89
2018-06-08T03:43:43.063Z,18.86
2018-06-08T03:44:25.217Z,18.88
2018-06-08T03:45:06.569Z,18.88
2018-06-08T03:45:47.903Z,18.99
2018-06-08T03:46:29.056Z,18.89
2018-06-08T03:47:10.100Z,18.89
2018-06-08T03:47:51.050Z,18.89
2018-06-08T03:48:32.227Z,18.93
2018-06-08T03:49:13.438Z,18.88
2018-06-08T03:49:55.263Z,18.89
2018-06-08T03:50:36.317Z,18.92
2018-06-08T03:51:17.247Z,18.95
2018-06-08T03:51:58.345Z,18.89
2018-06-08T03:52:39.356Z,18.9
2018-06-08T03:53:21.113Z,18.88
2018-06-08T03:54:03.285Z,18.88
2018-06-08T03:54:44.845Z,18.95
2018-06-08T03:55:26.031Z,18.92
2018-06-08T03:56:07.116Z,18.92
2018-06-08T03:56:48.110Z,18.83
2018-06-08T03:57:29.069Z,18.92
2018-06-08T03:58:10.980Z,18.84
2018-06-08T03:58:52.123Z,18.86
2018-06-08T03:59:33.198Z,18.88
2018-06-08T04:00:14.347Z,18.83
2018-06-08T04:00:55.231Z,18.92
2018-06-08T04:01:36.915Z,18.92
2018-06-08T04:02:17.941Z,18.88
2018-06-08T04:02:59.007Z,18.84
2018-06-08T04:03:39.860Z,18.96
2018-06-08T04:04:21.037Z,18.89
2018-06-08T04:05:02.147Z,18.86
2018-06-08T04:05:43.240Z,18.89
2018-06-08T04:06:24.265Z,18.9
2018-06-08T04:07:05.084Z,18.88
2018-06-08T04:07:45.661Z,18.88
2018-06-08T04:08:27.590Z,18.88
2018-06-08T04:09:08.407Z,18.89
2018-06-08T04:09:49.059Z,18.88
2018-06-08T04:10:29.630Z,18.99
2018-06-08T04:11:10.212Z,18.93
2018-06-08T04:11:51.752Z,19.02
2018-06-08T04:12:32.334Z,19.07
2018-06-08T04:13:13.033Z,19
2018-06-08T04:13:53.705Z,19.12
2018-06-08T04:14:34.362Z,19.21
2018-06-08T04:15:15.094Z,19.19
2018-06-08T04:15:55.728Z,19.34
2018-06-08T04:16:36.329Z,19.31
2018-06-08T04:17:17.152Z,19.37
2018-06-08T04:17:57.850Z,19.37
2018-06-08T04:18:38.808Z,19.48
2018-06-08T04:19:19.381Z,19.48
2018-06-08T04:19:59.956Z,19.55
2018-06-08T04:20:40.505Z,19.47
2018-06-08T04:21:21.080Z,19.55
2018-06-08T04:22:01.637Z,19.52
2018-06-08T04:22:42.231Z,19.52
2018-06-08T04:23:22.788Z,19.55
2018-06-08T04:24:03.360Z,19.62
2018-06-08T04:24:43.960Z,19.7
2018-06-08T04:25:24.525Z,19.69
2018-06-08T04:26:05.097Z,19.73
2018-06-08T04:26:45.672Z,19.76
2018-06-08T04:27:26.323Z,19.73
2018-06-08T04:28:07.297Z,19.76
2018-06-08T04:28:48.505Z,19.86
2018-06-08T04:29:30.323Z,19.88
2018-06-08T04:30:11.309Z,19.85
2018-06-08T04:30:52.334Z,19.89
2018-06-08T04:31:33.445Z,19.94
2018-06-08T04:32:14.464Z,19.85
2018-06-08T04:32:55.825Z,19.88
2018-06-08T04:33:36.789Z,19.91
2018-06-08T04:34:17.832Z,19.92
2018-06-08T04:34:58.864Z,19.92
2018-06-08T04:35:39.856Z,19.84
2018-06-08T04:36:21.015Z,19.88
2018-06-08T04:37:03.902Z,19.85
2018-06-08T04:37:45.060Z,20.02
2018-06-08T04:38:26.943Z,19.91
2018-06-08T04:39:08.146Z,20.02
2018-06-08T04:39:49.292Z,19.92
2018-06-08T04:40:30.445Z,19.99
2018-06-08T04:41:11.376Z,19.99
2018-06-08T04:41:52.342Z,20.03
2018-06-08T04:42:33.356Z,19.99
2018-06-08T04:43:14.438Z,20.11
2018-06-08T04:43:55.555Z,20.13
2018-06-08T04:44:36.765Z,20.18
2018-06-08T04:45:17.984Z,20.22
2018-06-08T04:45:59.106Z,20.14
2018-06-08T04:46:40.999Z,20.21
2018-06-08T04:47:22.087Z,20.14
2018-06-08T04:48:03.311Z,20.26
2018-06-08T04:48:44.437Z,20.16
2018-06-08T04:49:25.316Z,20.21
2018-06-08T04:50:06.230Z,20.26
2018-06-08T04:50:48.575Z,20.11
2018-06-08T04:51:30.037Z,20.14
2018-06-08T04:52:11.205Z,20.13
2018-06-08T04:52:52.198Z,20.11
2018-06-08T04:53:33.432Z,20.11
2018-06-08T04:54:14.503Z,20.07
2018-06-08T04:54:55.773Z,20.1
2018-06-08T04:55:37.416Z,20.07
2018-06-08T04:56:18.383Z,20.09
2018-06-08T04:57:00.416Z,20.06
2018-06-08T04:57:41.510Z,20.07
2018-06-08T04:58:22.711Z,20.21
2018-06-08T04:59:03.964Z,20.13
2018-06-08T04:59:45.099Z,20.1
2018-06-08T05:00:27.153Z,20.13
2018-06-08T05:01:08.346Z,20.18
2018-06-08T05:01:49.441Z,20.21
2018-06-08T05:02:30.726Z,20.19
2018-06-08T05:03:11.881Z,20.24
2018-06-08T05:03:52.968Z,20.29
2018-06-08T05:04:34.127Z,20.29
2018-06-08T05:05:15.081Z,20.31
2018-06-08T05:05:56.294Z,20.29
2018-06-08T05:06:37.407Z,20.32
2018-06-08T05:07:18.506Z,20.26
2018-06-08T05:07:59.643Z,20.4
2018-06-08T05:08:40.808Z,20.51
2018-06-08T05:09:22.458Z,20.4
2018-06-08T05:10:03.617Z,20.39
2018-06-08T05:10:44.849Z,20.39
2018-06-08T05:11:25.992Z,20.47
2018-06-08T05:12:07.199Z,20.4
2018-06-08T05:12:49.051Z,20.37
2018-06-08T05:13:30.216Z,20.36
2018-06-08T05:14:11.430Z,20.34
2018-06-08T05:14:52.694Z,20.43
2018-06-08T05:15:33.831Z,20.37
2018-06-08T05:16:14.955Z,20.43
2018-06-08T05:16:56.776Z,20.48
2018-06-08T05:17:37.906Z,20.39
2018-06-08T05:18:18.953Z,20.48
2018-06-08T05:19:00.756Z,20.51
2018-06-08T05:19:41.816Z,20.58
2018-06-08T05:20:24.789Z,20.56
2018-06-08T05:21:05.748Z,20.67
2018-06-08T05:21:46.747Z,20.69
2018-06-08T05:22:27.900Z,20.69
2018-06-08T05:23:08.874Z,20.75
2018-06-08T05:23:50.062Z,20.82
2018-06-08T05:24:31.101Z,20.95
2018-06-08T05:25:12.788Z,20.99
2018-06-08T05:25:53.823Z,21.06
2018-06-08T05:26:34.956Z,21.11
2018-06-08T05:27:16.031Z,21.18
2018-06-08T05:27:57.018Z,21.29
2018-06-08T05:28:38.105Z,21.35
2018-06-08T05:29:19.396Z,21.43
2018-06-08T05:30:00.695Z,21.52
2018-06-08T05:30:41.845Z,21.54
2018-06-08T05:31:22.963Z,21.6
2018-06-08T05:32:04.128Z,21.57
2018-06-08T05:32:45.258Z,21.77
2018-06-08T05:33:26.413Z,21.88
2018-06-08T05:34:07.186Z,21.79
2018-06-08T05:34:48.164Z,21.92
2018-06-08T05:35:29.320Z,21.99
2018-06-08T05:36:10.512Z,22
2018-06-08T05:36:51.503Z,22.08
2018-06-08T05:37:32.638Z,22.1
2018-06-08T05:38:13.708Z,22.14
2018-06-08T05:38:54.752Z,22.25
2018-06-08T05:39:35.938Z,22.32
2018-06-08T05:40:16.944Z,22.23
2018-06-08T05:40:57.858Z,22.36
2018-06-08T05:41:38.422Z,22.43
2018-06-08T05:42:18.990Z,22.38
2018-06-08T05:42:59.574Z,22.51
2018-06-08T05:43:40.144Z,22.6
2018-06-08T05:44:20.699Z,22.66
2018-06-08T05:45:01.242Z,22.8
2018-06-08T05:45:41.843Z,22.81
2018-06-08T05:46:22.420Z,22.81
2018-06-08T05:47:02.993Z,22.91
2018-06-08T05:47:43.561Z,22.93
2018-06-08T05:48:24.204Z,22.96
2018-06-08T05:49:04.757Z,23.05
2018-06-08T05:49:45.313Z,23.12
2018-06-08T05:50:25.868Z,23.1
2018-06-08T05:51:06.427Z,23.2
2018-06-08T05:51:47.050Z,23.21
2018-06-08T05:52:27.751Z,23.37
2018-06-08T05:53:08.327Z,23.39
2018-06-08T05:53:48.903Z,23.32
2018-06-08T05:54:29.519Z,23.47
2018-06-08T05:55:10.187Z,23.58
2018-06-08T05:55:50.823Z,23.51
2018-06-08T05:56:31.362Z,23.66
2018-06-08T05:57:11.993Z,23.66
2018-06-08T05:57:52.596Z,23.76
2018-06-08T05:58:33.173Z,23.78
2018-06-08T05:59:13.732Z,23.84
2018-06-08T05:59:54.327Z,23.81
2018-06-08T06:00:34.898Z,23.91
2018-06-08T06:01:15.484Z,24.05
2018-06-08T06:01:56.039Z,24.01
2018-06-08T06:02:36.626Z,24.08
2018-06-08T06:03:17.189Z,24.14
2018-06-08T06:03:57.945Z,24.14
2018-06-08T06:04:38.600Z,24.16
2018-06-08T06:05:19.175Z,24.16
2018-06-08T06:05:59.738Z,24.24
2018-06-08T06:06:40.293Z,24.28
2018-06-08T06:07:20.928Z,24.29
2018-06-08T06:08:01.493Z,24.36
2018-06-08T06:08:42.066Z,24.5
2018-06-08T06:09:22.625Z,24.54
2018-06-08T06:10:03.202Z,24.58
2018-06-08T06:10:43.779Z,24.6
2018-06-08T06:11:24.347Z,24.65
2018-06-08T06:12:04.913Z,24.78
2018-06-08T06:12:45.493Z,24.78
2018-06-08T06:13:26.078Z,24.85
2018-06-08T06:14:06.711Z,24.89
2018-06-08T06:14:47.335Z,24.81
2018-06-08T06:15:27.945Z,24.84
2018-06-08T06:16:08.526Z,24.86
2018-06-08T06:16:49.089Z,24.86
2018-06-08T06:17:29.780Z,24.85
2018-06-08T06:18:10.343Z,24.85
2018-06-08T06:18:50.913Z,24.95
2018-06-08T06:19:31.476Z,24.93
2018-06-08T06:20:12.036Z,25.01
2018-06-08T06:20:52.664Z,24.99
2018-06-08T06:21:33.180Z,24.92
2018-06-08T06:22:13.759Z,24.91
2018-06-08T06:22:54.391Z,24.95
2018-06-08T06:23:34.969Z,24.93
2018-06-08T06:24:15.594Z,24.99
2018-06-08T06:24:56.166Z,25.06
2018-06-08T06:25:36.736Z,25.04
2018-06-08T06:26:17.300Z,25.11
2018-06-08T06:26:57.851Z,25.06
2018-06-08T06:27:38.441Z,24.98
2018-06-08T06:28:19.022Z,24.99
2018-06-08T06:28:59.581Z,25.1
2018-06-08T06:29:40.163Z,25.1
2018-06-08T06:30:20.772Z,25.04
2018-06-08T06:31:01.326Z,25.16
2018-06-08T06:31:41.882Z,25.23
2018-06-08T06:32:22.459Z,25.29
2018-06-08T06:33:03.013Z,25.35
2018-06-08T06:33:43.623Z,25.43
2018-06-08T06:34:24.207Z,25.41
2018-06-08T06:35:04.744Z,25.47
2018-06-08T06:35:45.312Z,25.5
2018-06-08T06:36:25.878Z,25.68
2018-06-08T06:37:06.465Z,25.73
2018-06-08T06:37:47.064Z,25.69
2018-06-08T06:38:27.682Z,25.78
2018-06-08T06:39:08.235Z,25.81
2018-06-08T06:39:48.796Z,25.8
2018-06-08T06:40:29.372Z,25.85
2018-06-08T06:41:09.958Z,25.95
2018-06-08T06:41:50.548Z,25.99
2018-06-08T06:42:31.105Z,26.09
2018-06-08T06:43:11.672Z,26.1
2018-06-08T06:43:52.266Z,26.15
2018-06-08T06:44:32.852Z,26.13
2018-06-08T06:45:13.450Z,26.18
2018-06-08T06:45:54.041Z,26.16
2018-06-08T06:46:34.608Z,26.19
2018-06-08T06:47:15.192Z,26.19
2018-06-08T06:47:55.789Z,26.07
2018-06-08T06:48:36.358Z,26.16
2018-06-08T06:49:16.960Z,26.19
2018-06-08T06:49:57.768Z,26.22
2018-06-08T06:50:38.345Z,26.18
2018-06-08T06:51:18.930Z,26.18
2018-06-08T06:51:59.505Z,26.21
2018-06-08T06:52:40.100Z,26.18
2018-06-08T06:53:20.664Z,26.13
2018-06-08T06:54:01.243Z,26.19
2018-06-08T06:54:41.850Z,26.29
2018-06-08T06:55:22.699Z,26.28
2018-06-08T06:56:03.120Z,26.25
2018-06-08T06:56:43.724Z,26.41
2018-06-08T06:57:24.336Z,26.41
2018-06-08T06:58:04.898Z,26.47
2018-06-08T06:58:45.524Z,26.53
2018-06-08T06:59:26.094Z,26.55
2018-06-08T07:00:06.687Z,26.58
2018-06-08T07:00:47.336Z,26.66
2018-06-08T07:01:28.017Z,26.66
2018-06-08T07:02:08.597Z,26.59
2018-06-08T07:02:49.172Z,26.74
2018-06-08T07:03:29.747Z,26.58
2018-06-08T07:04:10.318Z,26.65
2018-06-08T07:04:50.888Z,26.73
2018-06-08T07:05:31.467Z,26.68
2018-06-08T07:06:12.155Z,26.71
2018-06-08T07:06:52.889Z,26.81
2018-06-08T07:07:33.510Z,26.62
2018-06-08T07:08:14.074Z,26.78
2018-06-08T07:08:54.685Z,26.77
2018-06-08T07:09:35.253Z,26.83
2018-06-08T07:10:15.923Z,26.81
2018-06-08T07:10:56.521Z,26.81
2018-06-08T07:11:37.120Z,26.81
2018-06-08T07:12:17.692Z,26.78
2018-06-08T07:12:58.252Z,26.85
2018-06-08T07:13:38.837Z,26.95
2018-06-08T07:14:19.428Z,26.9
2018-06-08T07:15:00.075Z,26.93
2018-06-08T07:15:40.620Z,26.93
2018-06-08T07:16:21.220Z,26.92
2018-06-08T07:17:01.855Z,26.96
2018-06-08T07:17:42.386Z,27.05
2018-06-08T07:18:22.935Z,27.03
2018-06-08T07:19:03.532Z,27.08
2018-06-08T07:19:44.123Z,27.17
2018-06-08T07:20:24.673Z,27.18
2018-06-08T07:21:05.253Z,27.15
2018-06-08T07:21:45.908Z,27.15
2018-06-08T07:22:26.549Z,27.08
2018-06-08T07:23:07.211Z,27.05
2018-06-08T07:23:47.763Z,27
2018-06-08T07:24:29.174Z,27.05
2018-06-08T07:25:09.307Z,27.1
2018-06-08T07:25:49.903Z,27.15
2018-06-08T07:26:30.493Z,27.26
2018-06-08T07:27:11.067Z,27.21
2018-06-08T07:27:51.636Z,27.3
2018-06-08T07:28:32.201Z,27.35
2018-06-08T07:29:12.783Z,27.32
2018-06-08T07:29:53.348Z,27.42
2018-06-08T07:30:33.927Z,27.51
2018-06-08T07:31:14.498Z,27.47
2018-06-08T07:31:55.074Z,27.45
2018-06-08T07:32:35.641Z,27.49
2018-06-08T07:33:16.205Z,27.54
2018-06-08T07:33:56.783Z,27.44
2018-06-08T07:34:37.356Z,27.47
2018-06-08T07:35:17.946Z,27.47
2018-06-08T07:35:58.504Z,27.47
2018-06-08T07:36:39.075Z,27.52
2018-06-08T07:37:19.652Z,27.54
2018-06-08T07:38:00.311Z,27.54
2018-06-08T07:38:40.877Z,27.54
2018-06-08T07:39:21.449Z,27.58
2018-06-08T07:40:02.085Z,27.52
2018-06-08T07:40:42.814Z,27.49
2018-06-08T07:41:23.620Z,27.47
2018-06-08T07:42:04.214Z,27.45
2018-06-08T07:42:44.922Z,27.59
2018-06-08T07:43:25.553Z,27.67
2018-06-08T07:44:06.477Z,27.65
2018-06-08T07:44:47.049Z,27.73
2018-06-08T07:45:27.761Z,27.75
2018-06-08T07:46:08.359Z,27.83
2018-06-08T07:46:49.169Z,27.8
2018-06-08T07:47:29.904Z,27.82
2018-06-08T07:48:10.548Z,27.98
2018-06-08T07:48:51.224Z,27.78
2018-06-08T07:49:31.817Z,27.87
2018-06-08T07:50:12.398Z,27.86
2018-06-08T07:50:52.993Z,27.89
2018-06-08T07:51:33.577Z,27.92
2018-06-08T07:52:14.167Z,28
2018-06-08T07:52:54.733Z,28.01
2018-06-08T07:53:35.317Z,28.04
2018-06-08T07:54:15.899Z,28
2018-06-08T07:54:56.470Z,28.1
2018-06-08T07:55:37.075Z,28.08
2018-06-08T07:56:17.696Z,28.12
2018-06-08T07:56:58.268Z,28.12
2018-06-08T07:57:38.826Z,28.17
2018-06-08T07:58:21.051Z,28.12
2018-06-08T07:59:01.619Z,28.15
2018-06-08T07:59:42.209Z,28.12
2018-06-08T08:00:22.799Z,28.12
2018-06-08T08:01:03.358Z,28.22
2018-06-08T08:01:43.929Z,28.3
2018-06-08T08:02:24.491Z,28.26
2018-06-08T08:03:05.064Z,28.3
2018-06-08T08:03:45.632Z,28.25
2018-06-08T08:04:26.216Z,28.25
2018-06-08T08:05:06.827Z,28.25
2018-06-08T08:05:47.415Z,28.22
2018-06-08T08:06:27.971Z,28.25
2018-06-08T08:07:08.544Z,28.25
2018-06-08T08:07:49.108Z,28.27
2018-06-08T08:08:29.688Z,28.29
2018-06-08T08:09:10.285Z,28.29
2018-06-08T08:09:50.840Z,28.27
2018-06-08T08:10:31.420Z,28.32
2018-06-08T08:11:11.993Z,28.38
2018-06-08T08:11:52.578Z,28.42
2018-06-08T08:12:33.206Z,28.35
2018-06-08T08:13:13.787Z,28.33
2018-06-08T08:13:54.359Z,28.42
2018-06-08T08:14:35.041Z,28.45
2018-06-08T08:15:15.533Z,28.51
2018-06-08T08:15:56.149Z,28.51
2018-06-08T08:16:36.718Z,28.45
2018-06-08T08:17:17.320Z,28.45
2018-06-08T08:17:57.890Z,28.47
2018-06-08T08:18:38.480Z,28.48
2018-06-08T08:19:19.091Z,28.52
2018-06-08T08:19:59.618Z,28.47
2018-06-08T08:20:40.192Z,28.44
2018-06-08T08:21:20.777Z,28.48
2018-06-08T08:22:01.350Z,28.47
2018-06-08T08:22:41.916Z,28.41
2018-06-08T08:23:22.479Z,28.44
2018-06-08T08:24:03.052Z,28.49
2018-06-08T08:24:43.629Z,28.42
2018-06-08T08:25:24.204Z,28.37
2018-06-08T08:26:04.781Z,28.41
2018-06-08T08:26:45.358Z,28.49
2018-06-08T08:27:25.934Z,28.45
2018-06-08T08:28:06.501Z,28.44
2018-06-08T08:28:47.069Z,28.48
2018-06-08T08:29:27.629Z,28.52
2018-06-08T08:30:08.213Z,28.54
2018-06-08T08:30:48.790Z,28.57
2018-06-08T08:31:29.368Z,28.52
2018-06-08T08:32:09.942Z,28.63
2018-06-08T08:32:50.508Z,28.64
2018-06-08T08:33:31.086Z,28.66
2018-06-08T08:34:11.669Z,28.59
2018-06-08T08:34:52.232Z,28.62
2018-06-08T08:35:32.808Z,28.59
2018-06-08T08:36:13.374Z,28.56
2018-06-08T08:36:53.940Z,28.52
2018-06-08T08:37:34.511Z,28.6
2018-06-08T08:38:15.086Z,28.52
2018-06-08T08:38:55.651Z,28.57
2018-06-08T08:39:36.229Z,28.63
2018-06-08T08:40:16.781Z,28.6
2018-06-08T08:40:57.348Z,28.48
2018-06-08T08:41:37.931Z,28.54
2018-06-08T08:42:18.492Z,28.52
2018-06-08T08:42:59.065Z,28.49
2018-06-08T08:43:39.632Z,28.47
2018-06-08T08:44:20.196Z,28.47
2018-06-08T08:45:00.774Z,28.44
2018-06-08T08:45:41.398Z,28.39
2018-06-08T08:46:21.907Z,28.47